createdAt,value
2023-05-19T00:01:43.753Z,101226.84
2023-05-19T00:03:52.475Z,101224.22
2023-05-19T00:05:56.956Z,101224.22
2023-05-19T00:08:00.908Z,101220.78
2023-05-19T00:10:04.359Z,101224.16
2023-05-19T00:12:08.236Z,101232.81
2023-05-19T00:14:11.936Z,101232.03
2023-05-19T00:16:16.957Z,101233.63
2023-05-19T00:18:20.620Z,101230.06
2023-05-19T00:20:23.694Z,101228.38
2023-05-19T00:22:26.511Z,101224.94
2023-05-19T00:24:29.790Z,101232.81
2023-05-19T00:26:32.580Z,101230.09
2023-05-19T00:28:40.149Z,101230.06
2023-05-19T00:30:42.978Z,101229.22
2023-05-19T00:32:47.150Z,101229.19
2023-05-19T00:34:49.992Z,101230.97
2023-05-19T00:36:53.232Z,101228.34
2023-05-19T00:38:56.198Z,101228.25
2023-05-19T00:40:59.216Z,101225.69
2023-05-19T00:43:02.117Z,101227.41
2023-05-19T00:45:05.525Z,101235.16
2023-05-19T00:47:09.782Z,101227.34
2023-05-19T00:49:13.963Z,101230.63
2023-05-19T00:51:17.899Z,101223.63
2023-05-19T00:53:21.494Z,101220.97
2023-05-19T00:55:28.997Z,101222.63
2023-05-19T00:57:31.811Z,101224.44
2023-05-19T00:59:34.861Z,101223.56
2023-05-19T01:01:38.096Z,101228.72
2023-05-19T01:03:42.894Z,101224.34
2023-05-19T01:05:47.512Z,101224.34
2023-05-19T01:07:53.397Z,101221.72
2023-05-19T01:09:57.152Z,101220.75
2023-05-19T01:12:00.636Z,101213.72
2023-05-19T01:14:03.767Z,101207.53
2023-05-19T01:16:13.443Z,101204.03
2023-05-19T01:18:26.002Z,101202.19
2023-05-19T01:20:39.888Z,101198.50
2023-05-19T01:23:17.686Z,101194.03
2023-05-19T01:25:49.083Z,101196.69
2023-05-19T01:28:17.780Z,101195.69
2023-05-19T01:30:28.208Z,101201.78
2023-05-19T01:32:32.450Z,101197.41
2023-05-19T01:34:39.593Z,101194.78
2023-05-19T01:36:44.825Z,101193.84
2023-05-19T01:38:52.116Z,101201.59
2023-05-19T01:40:56.055Z,101201.47
2023-05-19T01:43:00.698Z,101197.97
2023-05-19T01:45:06.047Z,101198.84
2023-05-19T01:47:10.952Z,101204.00
2023-05-19T01:49:14.648Z,101207.38
2023-05-19T01:51:17.566Z,101215.16
2023-05-19T01:53:20.409Z,101209.81
2023-05-19T01:55:23.964Z,101204.75
2023-05-19T01:57:37.130Z,101205.53
2023-05-19T01:59:53.067Z,101211.41
2023-05-19T02:02:00.009Z,101214.84
2023-05-19T02:04:19.199Z,101221.88
2023-05-19T02:06:34.183Z,101223.56
2023-05-19T02:08:44.369Z,101219.09
2023-05-19T02:10:55.082Z,101219.03
2023-05-19T02:13:01.778Z,101223.28
2023-05-19T02:15:07.334Z,101228.44
2023-05-19T02:17:12.494Z,101222.47
2023-05-19T02:19:24.753Z,101218.09
2023-05-19T02:21:27.708Z,101227.53
2023-05-19T02:23:31.857Z,101219.63
2023-05-19T02:25:35.005Z,101216.97
2023-05-19T02:27:38.708Z,101220.44
2023-05-19T02:29:41.993Z,101216.25
2023-05-19T02:31:44.881Z,101225.75
2023-05-19T02:33:47.759Z,101227.31
2023-05-19T02:35:51.963Z,101232.50
2023-05-19T02:37:55.049Z,101225.50
2023-05-19T02:39:57.960Z,101221.06
2023-05-19T02:42:00.804Z,101227.09
2023-05-19T02:44:03.885Z,101224.44
2023-05-19T02:46:06.996Z,101220.91
2023-05-19T02:48:09.937Z,101216.66
2023-05-19T02:50:12.877Z,101212.28
2023-05-19T02:52:17.377Z,101208.63
2023-05-19T02:54:20.312Z,101206.13
2023-05-19T02:56:23.390Z,101202.41
2023-05-19T02:58:26.212Z,101208.50
2023-05-19T03:00:29.322Z,101206.75
2023-05-19T03:02:33.299Z,101208.50
2023-05-19T03:04:41.511Z,101211.81
2023-05-19T03:06:45.219Z,101203.03
2023-05-19T03:08:49.619Z,101208.94
2023-05-19T03:10:52.434Z,101206.41
2023-05-19T03:12:55.374Z,101210.56
2023-05-19T03:14:58.217Z,101207.03
2023-05-19T03:17:01.748Z,101220.81
2023-05-19T03:19:05.206Z,101212.91
2023-05-19T03:21:08.155Z,101210.31
2023-05-19T03:23:11.050Z,101211.03
2023-05-19T03:25:15.448Z,101210.25
2023-05-19T03:27:18.400Z,101206.72
2023-05-19T03:29:21.476Z,101212.03
2023-05-19T03:31:24.533Z,101207.84
2023-05-19T03:33:29.748Z,101205.78
2023-05-19T03:35:32.974Z,101210.03
2023-05-19T03:37:35.866Z,101212.63
2023-05-19T03:39:39.065Z,101214.41
2023-05-19T03:41:43.348Z,101219.66
2023-05-19T03:43:46.585Z,101229.06
2023-05-19T03:45:49.559Z,101221.28
2023-05-19T03:48:11.340Z,101227.91
2023-05-19T03:50:34.603Z,101226.25
2023-05-19T03:52:48.917Z,101226.19
2023-05-19T03:55:00.473Z,101230.75
2023-05-19T03:57:05.147Z,101229.91
2023-05-19T03:59:08.054Z,101226.44
2023-05-19T04:01:12.513Z,101228.31
2023-05-19T04:03:15.479Z,101230.72
2023-05-19T04:05:18.545Z,101233.31
2023-05-19T04:07:21.910Z,101224.47
2023-05-19T04:09:24.940Z,101226.28
2023-05-19T04:11:27.806Z,101221.00
2023-05-19T04:13:34.023Z,101223.53
2023-05-19T04:15:37.141Z,101221.75
2023-05-19T04:17:40.635Z,101226.88
2023-05-19T04:19:43.495Z,101229.56
2023-05-19T04:21:46.945Z,101227.81
2023-05-19T04:23:49.855Z,101238.25
2023-05-19T04:25:54.249Z,101234.69
2023-05-19T04:27:57.790Z,101229.50
2023-05-19T04:30:04.008Z,101240.78
2023-05-19T04:32:09.102Z,101236.50
2023-05-19T04:34:12.198Z,101234.78
2023-05-19T04:36:17.418Z,101240.88
2023-05-19T04:38:22.193Z,101246.16
2023-05-19T04:40:25.525Z,101241.69
2023-05-19T04:42:32.988Z,101252.38
2023-05-19T04:44:38.031Z,101242.81
2023-05-19T04:46:42.689Z,101243.78
2023-05-19T04:48:45.916Z,101249.88
2023-05-19T04:50:49.442Z,101243.69
2023-05-19T04:52:52.320Z,101249.72
2023-05-19T04:54:55.339Z,101246.38
2023-05-19T04:57:02.697Z,101245.50
2023-05-19T04:59:09.836Z,101244.66
2023-05-19T05:01:15.996Z,101246.50
2023-05-19T05:03:22.801Z,101244.78
2023-05-19T05:05:25.807Z,101248.22
2023-05-19T05:07:30.899Z,101248.31
2023-05-19T05:09:35.809Z,101249.13
2023-05-19T05:11:39.562Z,101248.34
2023-05-19T05:13:43.158Z,101245.84
2023-05-19T05:15:47.150Z,101242.34
2023-05-19T05:17:50.734Z,101246.91
2023-05-19T05:19:56.347Z,101244.38
2023-05-19T05:21:59.758Z,101251.31
2023-05-19T05:24:03.207Z,101246.25
2023-05-19T05:26:17.163Z,101253.31
2023-05-19T05:28:21.162Z,101253.47
2023-05-19T05:30:24.116Z,101242.44
2023-05-19T05:32:27.706Z,101244.97
2023-05-19T05:34:31.952Z,101242.38
2023-05-19T05:36:36.424Z,101240.69
2023-05-19T05:38:39.310Z,101246.13
2023-05-19T05:40:42.220Z,101237.66
2023-05-19T05:42:45.925Z,101242.75
2023-05-19T05:44:48.963Z,101243.50
2023-05-19T05:46:53.290Z,101237.97
2023-05-19T05:48:57.723Z,101240.56
2023-05-19T05:51:01.178Z,101237.84
2023-05-19T05:53:10.851Z,101242.97
2023-05-19T05:55:17.491Z,101242.19
2023-05-19T05:57:20.768Z,101245.56
2023-05-19T05:59:23.684Z,101237.94
2023-05-19T06:01:26.835Z,101233.81
2023-05-19T06:03:29.958Z,101236.59
2023-05-19T06:05:36.998Z,101227.25
2023-05-19T06:07:39.935Z,101225.72
2023-05-19T06:09:44.142Z,101234.50
2023-05-19T06:11:46.989Z,101227.84
2023-05-19T06:13:50.102Z,101234.09
2023-05-19T06:16:10.747Z,101238.53
2023-05-19T06:18:44.239Z,101234.41
2023-05-19T06:20:47.250Z,101230.25
2023-05-19T06:22:50.283Z,101232.16
2023-05-19T06:24:57.264Z,101232.31
2023-05-19T06:27:00.355Z,101230.69
2023-05-19T06:29:03.363Z,101226.63
2023-05-19T06:31:07.439Z,101219.03
2023-05-19T06:33:31.391Z,101234.56
2023-05-19T06:35:34.386Z,101232.84
2023-05-19T06:37:38.516Z,101226.03
2023-05-19T06:39:41.476Z,101237.38
2023-05-19T06:41:46.128Z,101228.72
2023-05-19T06:44:02.468Z,101223.47
2023-05-19T06:46:09.213Z,101219.34
2023-05-19T06:48:12.191Z,101221.03
2023-05-19T06:50:15.515Z,101230.59
2023-05-19T06:52:19.289Z,101229.75
2023-05-19T06:54:22.692Z,101224.72
2023-05-19T06:56:25.673Z,101223.13
2023-05-19T06:58:29.921Z,101225.94
2023-05-19T07:00:33.814Z,101221.59
2023-05-19T07:02:37.718Z,101228.66
2023-05-19T07:04:40.946Z,101215.50
2023-05-19T07:06:43.941Z,101217.31
2023-05-19T07:08:46.796Z,101207.66
2023-05-19T07:10:50.177Z,101212.03
2023-05-19T07:12:53.405Z,101206.75
2023-05-19T07:15:00.633Z,101212.13
2023-05-19T07:17:04.643Z,101209.63
2023-05-19T07:19:08.795Z,101212.28
2023-05-19T07:21:11.793Z,101208.03
2023-05-19T07:23:17.147Z,101206.34
2023-05-19T07:25:22.121Z,101203.69
2023-05-19T07:27:25.089Z,101203.78
2023-05-19T07:29:28.246Z,101193.34
2023-05-19T07:31:32.527Z,101196.91
2023-05-19T07:33:35.397Z,101191.66
2023-05-19T07:35:38.432Z,101194.28
2023-05-19T07:37:41.508Z,101195.19
2023-05-19T07:39:44.381Z,101187.34
2023-05-19T07:41:52.612Z,101183.00
2023-05-19T07:43:55.488Z,101189.16
2023-05-19T07:45:58.362Z,101178.69
2023-05-19T07:48:02.658Z,101182.25
2023-05-19T07:50:06.173Z,101176.97
2023-05-19T07:52:09.213Z,101178.78
2023-05-19T07:54:12.039Z,101179.69
2023-05-19T07:56:14.993Z,101176.16
2023-05-19T07:58:19.126Z,101171.81
2023-05-19T08:00:22.695Z,101170.97
2023-05-19T08:02:26.850Z,101170.06
2023-05-19T08:04:31.292Z,101170.97
2023-05-19T08:06:35.236Z,101169.22
2023-05-19T08:08:38.262Z,101170.09
2023-05-19T08:10:41.496Z,101163.97
2023-05-19T08:12:44.976Z,101161.34
2023-05-19T08:14:48.147Z,101163.09
2023-05-19T08:16:51.698Z,101157.88
2023-05-19T08:18:55.028Z,101156.97
2023-05-19T08:20:59.750Z,101156.09
2023-05-19T08:23:03.917Z,101157.84
2023-05-19T08:25:07.497Z,101155.22
2023-05-19T08:27:10.572Z,101150.75
2023-05-19T08:29:13.514Z,101157.78
2023-05-19T08:31:18.351Z,101149.06
2023-05-19T08:33:21.754Z,101157.75
2023-05-19T08:35:24.783Z,101153.31
2023-05-19T08:37:29.001Z,101148.13
2023-05-19T08:39:34.161Z,101153.34
2023-05-19T08:41:37.086Z,101142.84
2023-05-19T08:43:40.383Z,101146.31
2023-05-19T08:45:44.945Z,101145.44
2023-05-19T08:47:48.212Z,101133.09
2023-05-19T08:49:54.256Z,101130.44
2023-05-19T08:52:03.408Z,101129.47
2023-05-19T08:54:15.686Z,101124.16
2023-05-19T08:56:22.831Z,101122.34
2023-05-19T08:58:28.811Z,101117.03
2023-05-19T09:00:32.422Z,101118.72
2023-05-19T09:02:37.044Z,101115.13
2023-05-19T09:04:41.076Z,101118.69
2023-05-19T09:06:45.393Z,101120.41
2023-05-19T09:08:48.302Z,101111.66
2023-05-19T09:10:52.503Z,101115.88
2023-05-19T09:12:55.386Z,101111.47
2023-05-19T09:14:58.419Z,101112.28
2023-05-19T09:17:02.591Z,101112.97
2023-05-19T09:19:07.266Z,101112.06
2023-05-19T09:21:11.848Z,101100.78
2023-05-19T09:23:15.807Z,101100.72
2023-05-19T09:25:20.087Z,101106.84
2023-05-19T09:27:24.538Z,101094.56
2023-05-19T09:29:27.341Z,101093.38
2023-05-19T09:31:33.907Z,101086.44
2023-05-19T09:33:38.177Z,101091.47
2023-05-19T09:35:41.277Z,101091.47
2023-05-19T09:37:44.702Z,101092.50
2023-05-19T09:39:49.257Z,101084.81
2023-05-19T09:41:53.620Z,101083.06
2023-05-19T09:43:57.855Z,101084.06
2023-05-19T09:46:01.932Z,101084.97
2023-05-19T09:48:05.681Z,101075.53
2023-05-19T09:50:10.742Z,101085.31
2023-05-19T09:52:18.593Z,101080.16
2023-05-19T09:54:24.060Z,101079.22
2023-05-19T09:56:33.187Z,101072.00
2023-05-19T09:58:36.482Z,101072.75
2023-05-19T10:00:41.373Z,101072.06
2023-05-19T10:02:44.937Z,101075.56
2023-05-19T10:04:49.359Z,101067.75
2023-05-19T10:06:54.282Z,101067.75
2023-05-19T10:08:57.463Z,101070.25
2023-05-19T10:11:01.022Z,101066.56
2023-05-19T10:13:05.031Z,101070.72
2023-05-19T10:15:11.747Z,101071.41
2023-05-19T10:17:16.536Z,101069.69
2023-05-19T10:19:22.353Z,101064.63
2023-05-19T10:21:25.378Z,101059.81
2023-05-19T10:23:28.207Z,101066.66
2023-05-19T10:25:33.835Z,101068.16
2023-05-19T10:27:41.531Z,101069.19
2023-05-19T10:29:50.328Z,101064.03
2023-05-19T10:31:55.351Z,101057.84
2023-05-19T10:34:11.666Z,101051.72
2023-05-19T10:36:35.452Z,101047.03
2023-05-19T10:38:44.034Z,101061.78
2023-05-19T10:40:58.339Z,101047.84
2023-05-19T10:43:16.852Z,101050.44
2023-05-19T10:45:23.614Z,101059.81
2023-05-19T10:47:26.871Z,101053.97
2023-05-19T10:49:36.004Z,101046.81
2023-05-19T10:51:38.864Z,101045.88
2023-05-19T10:53:46.276Z,101042.56
2023-05-19T10:55:56.036Z,101042.81
2023-05-19T10:58:00.404Z,101047.66
2023-05-19T11:00:11.322Z,101045.59
2023-05-19T11:02:38.852Z,101041.44
2023-05-19T11:04:51.849Z,101039.66
2023-05-19T11:06:57.749Z,101038.38
2023-05-19T11:09:01.907Z,101037.69
2023-05-19T11:11:14.396Z,101044.81
2023-05-19T11:13:23.009Z,101031.09
2023-05-19T11:15:28.093Z,101037.91
2023-05-19T11:17:31.797Z,101030.72
2023-05-19T11:19:36.894Z,101037.59
2023-05-19T11:21:50.362Z,101039.00
2023-05-19T11:23:53.761Z,101035.16
2023-05-19T11:25:56.649Z,101026.34
2023-05-19T11:28:00.130Z,101018.34
2023-05-19T11:30:11.765Z,101013.34
2023-05-19T11:32:15.460Z,101019.44
2023-05-19T11:34:19.695Z,101018.56
2023-05-19T11:36:23.259Z,101014.59
2023-05-19T11:38:30.101Z,101020.00
2023-05-19T11:40:33.399Z,101025.66
2023-05-19T11:42:38.054Z,101021.38
2023-05-19T11:44:42.698Z,101018.41
2023-05-19T11:46:46.433Z,101013.91
2023-05-19T11:48:50.445Z,101023.75
2023-05-19T11:50:53.464Z,101020.22
2023-05-19T11:53:02.024Z,101017.88
2023-05-19T11:55:08.572Z,101013.06
2023-05-19T11:57:11.763Z,101009.03
2023-05-19T11:59:15.188Z,101022.38
2023-05-19T12:01:18.085Z,101015.50
2023-05-19T12:03:29.548Z,101011.00
2023-05-19T12:05:35.429Z,101005.84
2023-05-19T12:07:43.084Z,101007.72
2023-05-19T12:09:46.866Z,101008.28
2023-05-19T12:11:52.600Z,101001.41
2023-05-19T12:13:59.255Z,101011.03
2023-05-19T12:16:02.412Z,101017.38
2023-05-19T12:18:05.692Z,101006.75
2023-05-19T12:20:10.656Z,101004.81
2023-05-19T12:22:14.236Z,101005.78
2023-05-19T12:24:17.112Z,101004.78
2023-05-19T12:26:22.277Z,101002.97
2023-05-19T12:28:26.540Z,100998.59
2023-05-19T12:30:30.545Z,100999.53
2023-05-19T12:32:35.145Z,100992.41
2023-05-19T12:34:38.344Z,101002.75
2023-05-19T12:36:42.399Z,101005.97
2023-05-19T12:38:45.450Z,100993.00
2023-05-19T12:40:49.347Z,100995.72
2023-05-19T12:42:58.092Z,100989.56
2023-05-19T12:45:05.122Z,100991.72
2023-05-19T12:47:08.083Z,100989.91
2023-05-19T12:49:11.006Z,100988.31
2023-05-19T12:51:17.627Z,100992.94
2023-05-19T12:53:21.081Z,100985.22
2023-05-19T12:55:24.437Z,100992.34
2023-05-19T12:57:27.548Z,100992.13
2023-05-19T12:59:38.686Z,100990.53
2023-05-19T13:01:43.304Z,100981.66
2023-05-19T13:03:46.324Z,100991.34
2023-05-19T13:05:52.074Z,100984.25
2023-05-19T13:07:59.568Z,100986.22
2023-05-19T13:10:02.480Z,100991.63
2023-05-19T13:12:06.380Z,100978.50
2023-05-19T13:14:09.280Z,100986.56
2023-05-19T13:16:12.239Z,100987.50
2023-05-19T13:18:16.527Z,100987.41
2023-05-19T13:20:19.669Z,100985.63
2023-05-19T13:22:22.465Z,100980.56
2023-05-19T13:24:25.329Z,100982.22
2023-05-19T13:26:28.175Z,100980.47
2023-05-19T13:28:31.178Z,100987.50
2023-05-19T13:30:35.095Z,100990.28
2023-05-19T13:32:38.490Z,100985.22
2023-05-19T13:34:42.908Z,100989.34
2023-05-19T13:36:48.050Z,100975.28
2023-05-19T13:38:51.460Z,100987.75
2023-05-19T13:40:54.668Z,100979.66
2023-05-19T13:42:57.499Z,100985.63
2023-05-19T13:45:00.270Z,100983.19
2023-05-19T13:47:03.319Z,100984.13
2023-05-19T13:49:06.221Z,100985.94
2023-05-19T13:51:10.418Z,100981.81
2023-05-19T13:53:13.257Z,100985.22
2023-05-19T13:55:16.234Z,100981.59
2023-05-19T13:57:19.030Z,100991.59
2023-05-19T13:59:22.428Z,100988.94
2023-05-19T14:01:25.338Z,100995.09
2023-05-19T14:03:28.391Z,100990.56
2023-05-19T14:05:31.531Z,100985.47
2023-05-19T14:07:37.004Z,100989.84
2023-05-19T14:09:40.065Z,100989.66
2023-05-19T14:11:43.404Z,100985.34
2023-05-19T14:13:46.273Z,100983.53
2023-05-19T14:15:49.192Z,101000.25
2023-05-19T14:17:52.967Z,101002.75
2023-05-19T14:19:56.096Z,100998.34
2023-05-19T14:21:58.977Z,100983.44
2023-05-19T14:24:03.254Z,100986.09
2023-05-19T14:26:06.139Z,100985.28
2023-05-19T14:28:10.909Z,100988.84
2023-05-19T14:30:14.067Z,100989.59
2023-05-19T14:32:16.962Z,100978.97
2023-05-19T14:34:21.131Z,100975.03
2023-05-19T14:36:24.026Z,100979.56
2023-05-19T14:38:27.691Z,100974.25
2023-05-19T14:40:33.282Z,100974.94
2023-05-19T14:42:36.363Z,100974.78
2023-05-19T14:44:41.583Z,100966.00
2023-05-19T14:46:44.405Z,100968.63
2023-05-19T14:48:47.275Z,100964.94
2023-05-19T14:50:50.219Z,100961.53
2023-05-19T14:52:53.054Z,100971.75
2023-05-19T14:54:57.034Z,100965.63
2023-05-19T14:57:01.570Z,100967.53
2023-05-19T14:59:05.724Z,100963.13
2023-05-19T15:01:08.664Z,100960.63
2023-05-19T15:03:11.823Z,100958.56
2023-05-19T15:05:14.779Z,100962.94
2023-05-19T15:07:17.750Z,100958.56
2023-05-19T15:09:20.823Z,100963.78
2023-05-19T15:11:23.693Z,100961.91
2023-05-19T15:13:27.875Z,100963.81
2023-05-19T15:15:30.836Z,100960.56
2023-05-19T15:17:33.735Z,100956.38
2023-05-19T15:19:36.652Z,100964.47
2023-05-19T15:21:39.775Z,100952.16
2023-05-19T15:23:42.876Z,100959.97
2023-05-19T15:25:46.043Z,100960.13
2023-05-19T15:27:48.879Z,100947.09
2023-05-19T15:29:53.082Z,100947.94
2023-05-19T15:31:56.498Z,100946.63
2023-05-19T15:33:59.312Z,100949.22
2023-05-19T15:36:02.166Z,100953.97
2023-05-19T15:38:06.287Z,100947.13
2023-05-19T15:40:10.545Z,100942.81
2023-05-19T15:42:13.398Z,100942.16
2023-05-19T15:44:16.442Z,100935.94
2023-05-19T15:46:20.736Z,100943.88
2023-05-19T15:48:24.399Z,100947.25
2023-05-19T15:50:27.382Z,100942.13
2023-05-19T15:52:30.154Z,100957.28
2023-05-19T15:54:33.008Z,100945.03
2023-05-19T15:56:35.825Z,100942.31
2023-05-19T15:58:38.647Z,100937.06
2023-05-19T16:00:41.479Z,100932.97
2023-05-19T16:02:45.804Z,100935.81
2023-05-19T16:04:48.677Z,100930.22
2023-05-19T16:06:51.590Z,100931.28
2023-05-19T16:08:54.356Z,100938.13
2023-05-19T16:10:57.269Z,100934.66
2023-05-19T16:13:00.089Z,100937.34
2023-05-19T16:15:02.980Z,100931.28
2023-05-19T16:17:11.286Z,100931.38
2023-05-19T16:19:15.548Z,100924.22
2023-05-19T16:21:19.363Z,100925.88
2023-05-19T16:23:22.187Z,100920.84
2023-05-19T16:25:25.189Z,100921.56
2023-05-19T16:27:28.239Z,100921.66
2023-05-19T16:29:31.184Z,100917.28
2023-05-19T16:31:34.032Z,100917.38
2023-05-19T16:33:36.930Z,100914.66
2023-05-19T16:35:41.230Z,100912.81
2023-05-19T16:37:44.046Z,100916.34
2023-05-19T16:39:48.311Z,100899.72
2023-05-19T16:41:52.718Z,100899.75
2023-05-19T16:43:55.559Z,100899.16
2023-05-19T16:45:58.446Z,100897.34
2023-05-19T16:48:01.428Z,100891.97
2023-05-19T16:50:04.550Z,100887.66
2023-05-19T16:52:09.069Z,100878.75
2023-05-19T16:54:11.771Z,100877.75
2023-05-19T16:56:14.653Z,100878.72
2023-05-19T16:58:17.469Z,100887.59
2023-05-19T17:00:20.932Z,100882.94
2023-05-19T17:02:23.812Z,100876.72
2023-05-19T17:04:28.678Z,100878.75
2023-05-19T17:06:33.488Z,100881.56
2023-05-19T17:08:37.666Z,100885.03
2023-05-19T17:10:40.523Z,100877.81
2023-05-19T17:12:43.361Z,100879.59
2023-05-19T17:14:46.226Z,100877.19
2023-05-19T17:16:49.312Z,100877.19
2023-05-19T17:18:52.374Z,100880.72
2023-05-19T17:20:55.288Z,100878.91
2023-05-19T17:22:58.102Z,100884.19
2023-05-19T17:25:02.250Z,100882.34
2023-05-19T17:27:05.700Z,100884.97
2023-05-19T17:29:08.559Z,100885.94
2023-05-19T17:31:12.189Z,100879.72
2023-05-19T17:33:15.494Z,100875.16
2023-05-19T17:35:18.459Z,100876.78
2023-05-19T17:37:25.649Z,100885.78
2023-05-19T17:39:28.599Z,100878.91
2023-05-19T17:41:32.908Z,100876.28
2023-05-19T17:43:35.764Z,100884.31
2023-05-19T17:45:38.695Z,100875.34
2023-05-19T17:47:41.544Z,100882.28
2023-05-19T17:49:44.404Z,100879.69
2023-05-19T17:51:47.660Z,100876.22
2023-05-19T17:53:51.220Z,100885.84
2023-05-19T17:55:58.622Z,100879.75
2023-05-19T17:58:03.279Z,100884.06
2023-05-19T18:00:07.604Z,100886.75
2023-05-19T18:02:11.875Z,100878.88
2023-05-19T18:04:16.160Z,100882.38
2023-05-19T18:06:20.298Z,100886.66
2023-05-19T18:08:23.696Z,100880.47
2023-05-19T18:10:28.310Z,100889.31
2023-05-19T18:12:31.192Z,100882.06
2023-05-19T18:14:35.416Z,100878.84
2023-05-19T18:16:38.322Z,100878.94
2023-05-19T18:18:43.583Z,100880.69
2023-05-19T18:20:46.648Z,100873.66
2023-05-19T18:22:49.565Z,100878.88
2023-05-19T18:24:52.907Z,100874.47
2023-05-19T18:26:55.809Z,100874.59
2023-05-19T18:29:02.544Z,100871.13
2023-05-19T18:31:07.973Z,100865.94
2023-05-19T18:33:10.942Z,100872.03
2023-05-19T18:35:14.106Z,100867.63
2023-05-19T18:37:17.989Z,100868.47
2023-05-19T18:39:21.088Z,100860.69
2023-05-19T18:41:23.866Z,100868.59
2023-05-19T18:43:26.714Z,100870.34
2023-05-19T18:45:29.597Z,100860.72
2023-05-19T18:47:33.839Z,100870.38
2023-05-19T18:49:36.688Z,100872.16
2023-05-19T18:51:39.499Z,100866.94
2023-05-19T18:53:42.404Z,100864.34
2023-05-19T18:55:45.268Z,100861.63
2023-05-19T18:57:48.126Z,100865.19
2023-05-19T18:59:50.907Z,100866.94
2023-05-19T19:01:54.065Z,100869.59
2023-05-19T19:03:58.326Z,100870.50
2023-05-19T19:06:01.586Z,100871.44
2023-05-19T19:08:05.546Z,100873.31
2023-05-19T19:10:09.770Z,100872.41
2023-05-19T19:12:12.642Z,100878.59
2023-05-19T19:14:15.464Z,100874.22
2023-05-19T19:16:18.349Z,100869.72
2023-05-19T19:18:21.300Z,100867.19
2023-05-19T19:20:25.507Z,100868.81
2023-05-19T19:22:28.375Z,100864.47
2023-05-19T19:24:32.129Z,100864.53
2023-05-19T19:26:35.134Z,100875.13
2023-05-19T19:28:37.963Z,100876.84
2023-05-19T19:30:40.879Z,100869.81
2023-05-19T19:32:43.715Z,100876.00
2023-05-19T19:34:46.573Z,100876.94
2023-05-19T19:36:50.741Z,100875.22
2023-05-19T19:38:53.572Z,100878.66
2023-05-19T19:40:56.443Z,100883.03
2023-05-19T19:42:59.417Z,100878.59
2023-05-19T19:45:02.433Z,100879.63
2023-05-19T19:47:06.123Z,100887.56
2023-05-19T19:49:09.048Z,100880.38
2023-05-19T19:51:11.866Z,100884.78
2023-05-19T19:53:16.100Z,100886.75
2023-05-19T19:55:18.936Z,100885.94
2023-05-19T19:57:21.832Z,100886.75
2023-05-19T19:59:24.645Z,100887.75
2023-05-19T20:01:28.144Z,100891.28
2023-05-19T20:03:31.764Z,100895.81
2023-05-19T20:05:34.714Z,100895.81
2023-05-19T20:07:37.594Z,100886.94
2023-05-19T20:09:41.818Z,100893.16
2023-05-19T20:11:44.851Z,100889.69
2023-05-19T20:13:47.710Z,100891.44
2023-05-19T20:15:51.074Z,100891.44
2023-05-19T20:17:54.076Z,100892.25
2023-05-19T20:19:57.257Z,100886.09
2023-05-19T20:22:00.116Z,100884.41
2023-05-19T20:24:03.018Z,100879.16
2023-05-19T20:26:12.494Z,100885.41
2023-05-19T20:28:16.248Z,100881.94
2023-05-19T20:30:19.275Z,100882.06
2023-05-19T20:32:22.115Z,100883.84
2023-05-19T20:34:25.079Z,100879.34
2023-05-19T20:36:28.029Z,100882.00
2023-05-19T20:38:31.025Z,100874.16
2023-05-19T20:40:33.947Z,100875.88
2023-05-19T20:42:41.134Z,100875.81
2023-05-19T20:44:44.105Z,100883.88
2023-05-19T20:46:46.970Z,100881.34
2023-05-19T20:48:49.874Z,100875.16
2023-05-19T20:50:53.321Z,100884.84
2023-05-19T20:52:56.281Z,100885.75
2023-05-19T20:54:59.132Z,100888.31
2023-05-19T20:57:06.253Z,100878.69
2023-05-19T20:59:10.384Z,100876.97
2023-05-19T21:01:13.383Z,100874.34
2023-05-19T21:03:16.621Z,100880.50
2023-05-19T21:05:19.816Z,100869.97
2023-05-19T21:07:22.697Z,100871.88
2023-05-19T21:09:25.750Z,100869.16
2023-05-19T21:11:28.579Z,100871.84
2023-05-19T21:13:31.446Z,100871.91
2023-05-19T21:15:35.719Z,100878.03
2023-05-19T21:17:38.605Z,100878.97
2023-05-19T21:19:41.496Z,100876.34
2023-05-19T21:21:44.875Z,100875.47
2023-05-19T21:23:47.778Z,100877.28
2023-05-19T21:25:51.221Z,100873.72
2023-05-19T21:27:55.404Z,100868.53
2023-05-19T21:29:58.300Z,100872.91
2023-05-19T21:32:02.471Z,100872.84
2023-05-19T21:34:07.204Z,100874.59
2023-05-19T21:36:10.061Z,100865.84
2023-05-19T21:38:23.600Z,100874.66
2023-05-19T21:40:27.167Z,100877.34
2023-05-19T21:42:30.042Z,100873.81
2023-05-19T21:44:32.885Z,100877.34
2023-05-19T21:46:35.785Z,100875.59
2023-05-19T21:48:40.035Z,100877.31
2023-05-19T21:50:42.900Z,100867.78
2023-05-19T21:52:45.918Z,100878.34
2023-05-19T21:54:48.734Z,100875.63
2023-05-19T21:56:51.562Z,100869.53
2023-05-19T21:58:54.364Z,100878.31
2023-05-19T22:00:57.277Z,100874.81
2023-05-19T22:03:00.196Z,100866.97
2023-05-19T22:05:04.738Z,100872.97
2023-05-19T22:07:07.840Z,100877.50
2023-05-19T22:09:12.937Z,100870.53
2023-05-19T22:11:17.907Z,100870.50
2023-05-19T22:13:21.306Z,100869.59
2023-05-19T22:15:24.555Z,100874.06
2023-05-19T22:17:27.486Z,100874.94
2023-05-19T22:19:30.443Z,100872.28
2023-05-19T22:21:34.914Z,100871.47
2023-05-19T22:23:37.816Z,100870.59
2023-05-19T22:25:40.755Z,100863.53
2023-05-19T22:27:43.698Z,100875.81
2023-05-19T22:29:46.579Z,100865.41
2023-05-19T22:31:49.476Z,100876.81
2023-05-19T22:33:52.355Z,100870.69
2023-05-19T22:35:55.299Z,100868.06
2023-05-19T22:37:59.483Z,100868.94
2023-05-19T22:40:02.265Z,100873.25
2023-05-19T22:42:05.480Z,100863.56
2023-05-19T22:44:11.410Z,100862.78
2023-05-19T22:46:14.297Z,100864.56
2023-05-19T22:48:17.224Z,100862.75
2023-05-19T22:50:20.286Z,100857.53
2023-05-19T22:52:23.284Z,100860.19
2023-05-19T22:54:27.477Z,100859.31
2023-05-19T22:56:30.307Z,100852.31
2023-05-19T22:58:33.128Z,100854.88
2023-05-19T23:00:36.048Z,100854.84
2023-05-19T23:02:38.893Z,100855.81
2023-05-19T23:04:41.701Z,100854.00
2023-05-19T23:06:44.599Z,100854.84
2023-05-19T23:08:47.430Z,100856.66
2023-05-19T23:10:51.604Z,100854.06
2023-05-19T23:12:54.416Z,100852.28
2023-05-19T23:14:57.256Z,100854.94
2023-05-19T23:17:00.249Z,100857.56
2023-05-19T23:19:03.218Z,100855.84
2023-05-19T23:21:06.057Z,100852.28
2023-05-19T23:23:08.872Z,100852.22
2023-05-19T23:25:16.555Z,100851.38
2023-05-19T23:27:20.800Z,100844.44
2023-05-19T23:29:23.649Z,100846.19
2023-05-19T23:31:26.639Z,100837.47
2023-05-19T23:33:29.490Z,100836.59
2023-05-19T23:35:32.637Z,100847.97
2023-05-19T23:39:50.138Z,100842.75
2023-05-19T23:41:52.991Z,100837.53
2023-05-19T23:43:57.244Z,100838.44